createdAt,value
2023-01-09T15:38:25.342Z,42.18
2023-01-09T16:36:45.787Z,42.75
2023-01-09T16:55:32.976Z,38.33
2023-01-09T16:58:36.683Z,39.58
2023-01-09T17:01:39.425Z,29.73
2023-01-09T17:04:42.153Z,-1.00
2023-01-09T17:07:44.625Z,-1.00
2023-01-09T17:13:04.459Z,27.79
2023-01-09T17:16:07.844Z,33.05
2023-01-09T17:19:18.803Z,35.98
2023-01-09T17:22:25.688Z,37.57
2023-01-09T17:25:48.185Z,37.64
2023-01-09T17:28:52.129Z,37.78
2023-01-09T17:31:55.462Z,38.22
2023-01-09T17:34:58.189Z,38.53
2023-01-09T17:38:00.861Z,38.71
2023-01-09T17:41:03.648Z,42.91
2023-01-09T17:44:06.353Z,39.39
2023-01-09T17:47:16.537Z,38.91
2023-01-09T17:50:21.991Z,39.11
2023-01-09T17:53:26.742Z,39.24
2023-01-09T17:56:34.969Z,39.37
2023-01-09T17:59:37.335Z,39.38
2023-01-09T18:03:17.389Z,39.49
2023-01-09T18:06:55.283Z,39.48
2023-01-09T18:10:32.704Z,39.56
2023-01-09T18:14:13.531Z,39.41
2023-01-09T18:17:48.284Z,39.36
2023-01-09T18:21:27.555Z,39.44
2023-01-09T19:01:20.024Z,39.52
2023-01-09T19:04:57.991Z,38.25
2023-01-09T19:08:36.024Z,38.70
2023-01-09T19:12:14.315Z,39.19
2023-01-09T19:15:57.966Z,40.16
2023-01-09T19:19:30.281Z,40.77
2023-01-09T19:23:06.535Z,40.86
2023-01-09T19:29:00.847Z,43.26
2023-01-09T19:32:38.514Z,44.61
2023-01-09T19:36:17.143Z,45.14
2023-01-09T19:39:55.290Z,45.25
2023-01-09T19:43:30.243Z,42.64
2023-01-09T19:47:08.013Z,42.13
2023-01-09T19:50:48.269Z,41.85
2023-01-09T19:54:24.534Z,41.44
2023-01-09T19:58:00.297Z,41.38
2023-01-09T20:01:41.884Z,41.42
2023-01-09T20:05:16.132Z,41.25
2023-01-09T20:08:56.842Z,41.08
2023-01-09T20:12:32.194Z,40.93
2023-01-09T20:16:23.313Z,40.69
2023-01-09T20:20:20.628Z,40.25
2023-01-09T20:24:01.990Z,40.43
2023-01-09T20:27:37.948Z,40.50
2023-01-09T20:31:16.779Z,39.94
2023-01-09T20:34:52.841Z,39.84
2023-01-09T20:38:28.709Z,39.89
2023-01-09T20:42:06.164Z,39.75
2023-01-09T20:45:43.977Z,39.88
2023-01-09T20:49:21.755Z,39.38
2023-01-09T20:52:58.751Z,39.36
2023-01-09T20:56:37.156Z,39.37
2023-01-09T21:00:15.015Z,39.21
2023-01-09T21:03:54.411Z,39.00
2023-01-09T21:07:30.274Z,38.91
2023-01-09T21:11:10.657Z,39.04
2023-01-09T21:14:45.349Z,39.06
2023-01-09T21:18:23.425Z,39.29
2023-01-09T21:22:00.094Z,39.23
2023-01-09T21:25:41.697Z,39.05
2023-01-09T21:29:14.973Z,39.33
2023-01-09T21:32:53.169Z,39.53
2023-01-09T21:36:32.795Z,39.92
2023-01-09T21:40:14.004Z,40.05
2023-01-09T21:44:03.750Z,40.36
2023-01-09T21:47:23.208Z,40.15
2023-01-09T21:50:25.935Z,40.23
2023-01-09T21:53:29.991Z,40.38
2023-01-09T21:56:32.596Z,40.40
2023-01-09T21:59:35.369Z,40.31
2023-01-09T22:02:39.699Z,40.46
2023-01-09T22:05:43.189Z,40.45
2023-01-09T22:08:46.817Z,40.57
2023-01-09T22:11:50.437Z,40.60
2023-01-09T22:14:54.306Z,40.59
2023-01-09T22:17:57.513Z,40.67
2023-01-09T22:21:02.637Z,40.75
2023-01-09T22:24:07.182Z,40.75
2023-01-09T22:27:10.468Z,40.90
2023-01-09T22:30:15.225Z,40.94
2023-01-09T22:33:19.543Z,40.93
2023-01-09T22:36:22.930Z,41.01
2023-01-09T22:39:26.937Z,41.02
2023-01-09T22:42:30.655Z,41.15
2023-01-09T22:45:34.727Z,41.11
2023-01-09T22:48:39.257Z,41.23
2023-01-09T22:51:43.207Z,41.36
2023-01-09T22:54:46.816Z,41.34
2023-01-09T22:57:51.081Z,41.40
2023-01-09T23:00:56.263Z,41.40
2023-01-09T23:04:37.685Z,41.50
2023-01-09T23:07:41.089Z,41.52
2023-01-09T23:10:44.975Z,41.57
2023-01-09T23:13:48.190Z,41.59
2023-01-09T23:16:51.467Z,41.59
2023-01-09T23:19:55.388Z,41.63
2023-01-09T23:22:59.320Z,41.78
2023-01-09T23:26:05.268Z,41.75
2023-01-09T23:29:08.648Z,41.95
2023-01-09T23:32:14.414Z,41.98
2023-01-09T23:35:18.025Z,41.94
2023-01-09T23:38:21.633Z,41.94
2023-01-09T23:41:48.465Z,41.88
2023-01-09T23:44:52.076Z,42.12
2023-01-09T23:47:56.554Z,42.01
2023-01-09T23:51:00.309Z,42.11
2023-01-09T23:54:03.732Z,42.02
2023-01-09T23:57:07.280Z,41.97
